createdAt,value
2022-09-05T00:00:43.351Z,0.00
2022-09-05T00:01:43.335Z,0.00
2022-09-05T00:02:49.348Z,0.00
2022-09-05T00:03:44.527Z,0.00
2022-09-05T00:04:43.300Z,0.00
2022-09-05T00:05:50.993Z,0.00
2022-09-05T00:06:44.263Z,0.00
2022-09-05T00:07:58.186Z,0.00
2022-09-05T00:08:44.291Z,0.00
2022-09-05T00:09:43.251Z,0.00
2022-09-05T00:11:16.748Z,0.00
2022-09-05T00:11:44.352Z,0.00
2022-09-05T00:12:43.203Z,0.00
2022-09-05T00:13:43.225Z,0.00
2022-09-05T00:15:15.169Z,0.00
2022-09-05T00:15:44.244Z,0.00
2022-09-05T00:16:43.157Z,0.00
2022-09-05T00:18:26.699Z,0.00
2022-09-05T00:24:19.004Z,0.00
2022-09-05T00:24:19.136Z,0.00
2022-09-05T00:24:25.765Z,0.00
2022-09-05T00:24:25.995Z,0.00
2022-09-05T00:24:26.077Z,0.00
2022-09-05T00:24:30.374Z,0.00
2022-09-05T00:25:06.907Z,0.00
2022-09-05T00:25:44.073Z,0.00
2022-09-05T00:26:49.974Z,0.00
2022-09-05T00:27:44.065Z,0.00
2022-09-05T00:28:43.049Z,0.00
2022-09-05T00:30:55.298Z,0.00
2022-09-05T00:31:50.699Z,0.00
2022-09-05T00:31:53.881Z,0.00
2022-09-05T00:32:44.085Z,0.00
2022-09-05T00:33:42.960Z,0.00
2022-09-05T00:34:47.868Z,0.00
2022-09-05T00:35:43.939Z,0.00
2022-09-05T00:36:42.917Z,0.00
2022-09-05T00:37:42.929Z,0.00
2022-09-05T00:38:42.952Z,0.00
2022-09-05T00:39:48.588Z,0.00
2022-09-05T00:40:43.881Z,0.00
2022-09-05T00:41:42.890Z,0.00
2022-09-05T00:42:42.869Z,0.00
2022-09-05T00:43:42.896Z,0.00
2022-09-05T00:44:42.849Z,0.00
2022-09-05T00:45:42.825Z,0.00
2022-09-05T00:46:42.892Z,0.00
2022-09-05T00:47:47.848Z,0.00
2022-09-05T00:48:43.816Z,0.00
2022-09-05T00:49:42.787Z,0.00
2022-09-05T00:50:42.765Z,0.00
2022-09-05T00:51:42.767Z,0.00
2022-09-05T00:52:42.743Z,0.00
2022-09-05T00:53:43.767Z,0.00
2022-09-05T00:54:42.725Z,0.00
2022-09-05T00:55:42.731Z,0.00
2022-09-05T00:56:42.710Z,0.00
2022-09-05T00:57:42.687Z,0.00
2022-09-05T00:58:42.709Z,0.00
2022-09-05T00:59:42.661Z,0.00
2022-09-05T01:00:43.640Z,0.00
2022-09-05T01:01:42.747Z,0.00
2022-09-05T01:02:51.688Z,0.00
2022-09-05T01:03:43.672Z,0.00
2022-09-05T01:04:42.625Z,0.00
2022-09-05T01:05:42.613Z,0.00
2022-09-05T01:06:42.585Z,0.00
2022-09-05T01:07:46.729Z,0.00
2022-09-05T01:08:42.641Z,0.00
2022-09-05T01:09:42.556Z,0.00
2022-09-05T01:10:42.517Z,0.00
2022-09-05T01:11:42.528Z,0.00
2022-09-05T01:12:42.503Z,0.00
2022-09-05T01:13:43.533Z,0.00
2022-09-05T01:14:42.493Z,0.00
2022-09-05T01:15:42.541Z,0.00
2022-09-05T01:16:42.492Z,0.00
2022-09-05T01:17:42.469Z,0.00
2022-09-05T01:18:42.492Z,0.00
2022-09-05T01:19:42.455Z,0.00
2022-09-05T01:20:42.432Z,0.00
2022-09-05T01:21:48.188Z,0.00
2022-09-05T01:22:43.405Z,0.00
2022-09-05T01:23:42.432Z,0.00
2022-09-05T01:24:42.382Z,0.00
2022-09-05T01:25:44.113Z,0.00
2022-09-05T01:26:43.362Z,0.00
2022-09-05T01:29:13.613Z,0.00
2022-09-05T01:29:17.757Z,0.00
2022-09-05T01:29:43.357Z,0.00
2022-09-05T01:30:42.345Z,0.00
2022-09-05T01:31:42.312Z,0.00
2022-09-05T01:32:42.304Z,0.00
2022-09-05T01:33:42.330Z,0.00
2022-09-05T01:34:42.259Z,0.00
2022-09-05T01:35:42.269Z,0.00
2022-09-05T01:36:43.247Z,0.00
2022-09-05T01:37:42.259Z,0.00
2022-09-05T01:38:43.020Z,0.00
2022-09-05T01:40:16.144Z,0.00
2022-09-05T01:40:43.941Z,0.00
2022-09-05T01:41:43.189Z,0.00
2022-09-05T01:42:42.190Z,0.00
2022-09-05T01:43:42.213Z,0.00
2022-09-05T01:44:42.197Z,0.00
2022-09-05T01:45:42.141Z,0.00
2022-09-05T01:46:42.237Z,0.00
2022-09-05T01:47:42.106Z,0.00
2022-09-05T01:48:44.525Z,0.00
2022-09-05T01:49:43.091Z,0.00
2022-09-05T01:50:42.094Z,0.00
2022-09-05T01:51:42.094Z,0.00
2022-09-05T01:52:49.412Z,0.00
2022-09-05T01:53:43.079Z,0.00
2022-09-05T01:54:42.049Z,0.00
2022-09-05T01:56:04.052Z,0.00
2022-09-05T01:56:43.040Z,0.00
2022-09-05T01:57:42.001Z,0.00
2022-09-05T01:58:42.034Z,0.00
2022-09-05T01:59:45.871Z,0.00
2022-09-05T02:00:41.992Z,0.00
2022-09-05T02:01:42.016Z,0.00
2022-09-05T02:02:50.176Z,0.00
2022-09-05T02:03:42.963Z,0.00
2022-09-05T02:04:41.932Z,0.00
2022-09-05T02:05:48.649Z,0.00
2022-09-05T02:06:44.094Z,0.00
2022-09-05T02:07:41.894Z,0.00
2022-09-05T02:08:41.984Z,0.00
2022-09-05T02:09:41.898Z,0.00
2022-09-05T02:10:41.876Z,0.00
2022-09-05T02:11:41.850Z,0.00
2022-09-05T02:12:41.858Z,0.00
2022-09-05T02:13:41.823Z,0.00
2022-09-05T02:14:41.851Z,0.00
2022-09-05T02:15:41.848Z,0.00
2022-09-05T02:16:41.808Z,0.00
2022-09-05T02:17:50.525Z,0.00
2022-09-05T02:18:42.768Z,0.00
2022-09-05T02:19:41.787Z,0.00
2022-09-05T02:20:41.751Z,0.00
2022-09-05T02:21:56.647Z,0.00
2022-09-05T02:22:42.738Z,0.00
2022-09-05T02:23:42.584Z,0.00
2022-09-05T02:24:41.735Z,0.00
2022-09-05T02:26:03.225Z,0.00
2022-09-05T02:26:42.676Z,0.00
2022-09-05T02:28:04.453Z,0.00
2022-09-05T02:28:42.665Z,0.00
2022-09-05T02:29:41.709Z,0.00
2022-09-05T02:30:48.456Z,0.00
2022-09-05T02:31:42.714Z,0.00
2022-09-05T02:32:43.310Z,0.00
2022-09-05T02:33:41.601Z,0.00
2022-09-05T02:34:41.636Z,0.00
2022-09-05T02:35:41.587Z,0.00
2022-09-05T02:36:41.578Z,0.00
2022-09-05T02:39:51.957Z,0.00
2022-09-05T02:44:18.285Z,0.00
2022-09-05T02:45:01.105Z,0.00
2022-09-05T02:45:06.536Z,0.00
2022-09-05T02:45:07.435Z,0.00
2022-09-05T02:45:08.516Z,0.00
2022-09-05T02:45:18.726Z,0.00
2022-09-05T02:45:24.531Z,0.00
2022-09-05T02:45:42.516Z,0.00
2022-09-05T02:46:41.595Z,0.00
2022-09-05T02:47:41.440Z,0.00
2022-09-05T02:48:41.439Z,0.00
2022-09-05T02:51:02.541Z,0.00
2022-09-05T02:57:12.758Z,0.00
2022-09-05T02:57:28.763Z,0.00
2022-09-05T02:57:29.378Z,0.00
2022-09-05T02:57:29.886Z,0.00
2022-09-05T02:57:36.528Z,0.00
2022-09-05T02:57:38.790Z,0.00
2022-09-05T02:57:39.225Z,0.00
2022-09-05T02:58:07.217Z,0.00
2022-09-05T02:59:08.164Z,0.00
2022-09-05T02:59:42.350Z,0.00
2022-09-05T03:00:41.292Z,0.00
2022-09-05T03:01:41.296Z,0.00
2022-09-05T03:02:41.338Z,0.00
2022-09-05T03:03:41.262Z,0.00
2022-09-05T03:04:41.296Z,0.00
2022-09-05T03:05:41.258Z,0.00
2022-09-05T03:06:41.230Z,0.00
2022-09-05T03:07:41.228Z,0.00
2022-09-05T03:08:41.221Z,0.00
2022-09-05T03:09:41.235Z,0.00
2022-09-05T03:10:53.757Z,0.00
2022-09-05T03:11:42.181Z,0.00
2022-09-05T03:12:41.171Z,0.00
2022-09-05T03:13:46.356Z,0.00
2022-09-05T03:14:42.148Z,0.00
2022-09-05T03:15:41.138Z,0.00
2022-09-05T03:16:47.005Z,0.00
2022-09-05T03:17:42.105Z,0.00
2022-09-05T03:18:41.132Z,0.00
2022-09-05T03:19:46.447Z,0.00
2022-09-05T03:20:42.075Z,0.00
2022-09-05T03:21:41.074Z,0.00
2022-09-05T03:22:41.059Z,0.00
2022-09-05T03:23:41.070Z,0.00
2022-09-05T03:24:41.037Z,0.00
2022-09-05T03:25:42.010Z,0.00
2022-09-05T03:26:41.013Z,0.00
2022-09-05T03:27:40.989Z,0.00
2022-09-05T03:28:41.004Z,0.00
2022-09-05T03:29:41.021Z,0.00
2022-09-05T03:30:41.027Z,0.00
2022-09-05T03:31:40.964Z,0.00
2022-09-05T03:32:42.141Z,0.00
2022-09-05T03:33:40.922Z,0.00
2022-09-05T03:34:40.935Z,0.00
2022-09-05T03:35:40.891Z,0.00
2022-09-05T03:36:40.895Z,0.00
2022-09-05T03:37:40.873Z,0.00
2022-09-05T03:38:40.922Z,0.00
2022-09-05T03:39:40.930Z,0.00
2022-09-05T03:40:40.864Z,0.00
2022-09-05T03:41:41.048Z,0.00
2022-09-05T03:42:40.830Z,0.00
2022-09-05T03:43:40.858Z,4.00
2022-09-05T03:44:40.818Z,4.00
2022-09-05T03:45:40.780Z,0.00
2022-09-05T03:46:40.795Z,4.00
2022-09-05T03:47:40.768Z,4.00
2022-09-05T03:48:40.768Z,4.00
2022-09-05T03:56:08.968Z,4.00
2022-09-05T03:57:04.295Z,4.00
2022-09-05T03:57:11.219Z,16.00
2022-09-05T03:57:12.605Z,4.00
2022-09-05T03:57:14.438Z,4.00
2022-09-05T03:57:19.054Z,12.00
2022-09-05T03:57:25.240Z,12.00
2022-09-05T03:57:27.282Z,8.00
2022-09-05T03:57:42.895Z,16.00
2022-09-05T03:58:57.228Z,24.00
2022-09-05T03:59:41.669Z,28.00
2022-09-05T04:00:40.632Z,28.00
2022-09-05T04:03:15.868Z,36.00
2022-09-05T04:05:48.315Z,44.00
2022-09-05T04:06:01.001Z,52.00
2022-09-05T04:08:08.950Z,60.00
2022-09-05T04:08:17.181Z,96.00
2022-09-05T04:08:18.710Z,84.00
2022-09-05T04:08:23.603Z,68.00
2022-09-05T04:08:43.180Z,108.00
2022-09-05T04:09:50.624Z,124.00
2022-09-05T04:10:41.611Z,144.00
2022-09-05T04:11:40.481Z,164.00
2022-09-05T04:12:40.473Z,188.00
2022-09-05T04:13:40.499Z,212.00
2022-09-05T04:14:40.456Z,240.00
2022-09-05T04:15:40.445Z,264.00
2022-09-05T04:16:40.517Z,296.00
2022-09-05T04:17:40.425Z,324.00
2022-09-05T04:18:40.457Z,356.00
2022-09-05T04:19:40.418Z,388.00
2022-09-05T04:20:40.796Z,420.00
2022-09-05T04:21:40.396Z,456.00
2022-09-05T04:22:40.384Z,500.00
2022-09-05T04:23:40.390Z,540.00
2022-09-05T04:24:40.988Z,584.00
2022-09-05T04:25:40.353Z,628.00
2022-09-05T04:26:40.326Z,676.00
2022-09-05T04:27:40.329Z,728.00
2022-09-05T04:28:41.426Z,776.00
2022-09-05T04:29:41.293Z,832.00
2022-09-05T04:30:40.664Z,884.00
2022-09-05T04:31:40.301Z,944.00
2022-09-05T04:32:40.279Z,1000.00
2022-09-05T04:33:40.233Z,1060.00
2022-09-05T04:34:40.281Z,1120.00
2022-09-05T04:35:40.266Z,1180.00
2022-09-05T04:36:40.237Z,1240.00
2022-09-05T04:37:48.567Z,1300.00
2022-09-05T04:38:41.206Z,1364.00
2022-09-05T04:39:40.239Z,1428.00
2022-09-05T04:40:40.180Z,1504.00
2022-09-05T04:41:40.350Z,1576.00
2022-09-05T04:42:40.161Z,1648.00
2022-09-05T04:43:40.147Z,1728.00
2022-09-05T04:44:40.179Z,1796.00
2022-09-05T04:45:40.217Z,1868.00
2022-09-05T04:46:48.803Z,1936.00
2022-09-05T04:47:41.088Z,2004.00
2022-09-05T04:48:40.075Z,2072.00
2022-09-05T04:49:40.101Z,2140.00
2022-09-05T04:50:40.062Z,2204.00
2022-09-05T04:51:40.047Z,2268.00
2022-09-05T04:52:40.065Z,2324.00
2022-09-05T04:53:40.042Z,2376.00
2022-09-05T04:54:40.071Z,2428.00
2022-09-05T04:55:40.021Z,2484.00
2022-09-05T04:56:39.999Z,2564.00
2022-09-05T04:57:39.989Z,2648.00
2022-09-05T05:00:48.435Z,2744.00
2022-09-05T05:02:15.089Z,2836.00
2022-09-05T05:05:58.863Z,2924.00
2022-09-05T05:06:02.381Z,3072.00
2022-09-05T05:06:05.204Z,2996.00
2022-09-05T05:06:05.784Z,3140.00
2022-09-05T05:06:17.341Z,3268.00
2022-09-05T05:06:19.941Z,3208.00
2022-09-05T05:06:46.445Z,3332.00
2022-09-05T05:07:40.925Z,3400.00
2022-09-05T05:08:40.089Z,3464.00
2022-09-05T05:09:39.838Z,3524.00
2022-09-05T05:14:09.265Z,3588.00
2022-09-05T05:17:53.835Z,3652.00
2022-09-05T05:17:55.596Z,3708.00
2022-09-05T05:17:57.987Z,3848.00
2022-09-05T05:18:03.938Z,3772.00
2022-09-05T05:18:11.315Z,3984.00
2022-09-05T05:18:11.480Z,3912.00
2022-09-05T05:18:15.463Z,4068.00
2022-09-05T05:18:55.980Z,4148.00
2022-09-05T05:19:40.787Z,4228.00
2022-09-05T05:20:43.726Z,4288.00
2022-09-05T05:21:39.742Z,4336.00
2022-09-05T05:22:39.712Z,4400.00
2022-09-05T05:23:39.710Z,4480.00
2022-09-05T05:24:39.669Z,4580.00
2022-09-05T05:25:39.656Z,4692.00
2022-09-05T05:26:39.681Z,4816.00
2022-09-05T05:27:39.929Z,4920.00
2022-09-05T05:28:39.632Z,5028.00
2022-09-05T05:29:39.651Z,5128.00
2022-09-05T05:30:39.612Z,5240.00
2022-09-05T05:31:39.644Z,5344.00
2022-09-05T05:32:45.725Z,5448.00
2022-09-05T05:33:40.603Z,5556.00
2022-09-05T05:34:39.589Z,5656.00
2022-09-05T05:35:48.070Z,5776.00
2022-09-05T05:36:40.539Z,5884.00
2022-09-05T05:37:39.545Z,6008.00
2022-09-05T05:38:39.549Z,6120.00
2022-09-05T05:39:39.598Z,6244.00
2022-09-05T05:40:50.525Z,6360.00
2022-09-05T05:41:40.473Z,6472.00
2022-09-05T05:42:39.468Z,6596.00
2022-09-05T05:43:42.906Z,6716.00
2022-09-05T05:44:40.462Z,6852.00
2022-09-05T05:45:39.529Z,6984.00
2022-09-05T05:46:39.449Z,7108.00
2022-09-05T05:47:39.439Z,7220.00
2022-09-05T05:48:39.421Z,7336.00
2022-09-05T05:49:39.425Z,7452.00
2022-09-05T05:50:39.395Z,7564.00
2022-09-05T05:52:01.724Z,7664.00
2022-09-05T05:52:40.383Z,7772.00
2022-09-05T05:53:43.351Z,7844.00
2022-09-05T05:54:39.371Z,7908.00
2022-09-05T05:55:51.848Z,7964.00
2022-09-05T05:56:40.317Z,7988.00
2022-09-05T05:57:39.322Z,7996.00
2022-09-05T05:58:39.315Z,7988.00
2022-09-05T05:59:39.332Z,8088.00
2022-09-05T06:00:39.258Z,8228.00
2022-09-05T06:01:39.400Z,8216.00
2022-09-05T06:02:39.364Z,8180.00
2022-09-05T06:03:39.326Z,8152.00
2022-09-05T06:04:44.740Z,8152.00
2022-09-05T06:05:40.221Z,8108.00
2022-09-05T06:06:39.290Z,8104.00
2022-09-05T06:08:07.519Z,8060.00
2022-09-05T06:11:47.734Z,8140.00
2022-09-05T06:12:40.149Z,7692.00
2022-09-05T06:14:48.389Z,7988.00
2022-09-05T06:14:51.884Z,8092.00
2022-09-05T06:15:00.011Z,7488.00
2022-09-05T06:15:00.481Z,7836.00
2022-09-05T06:15:03.787Z,7564.00
2022-09-05T06:15:40.105Z,7440.00
2022-09-05T06:16:39.157Z,7380.00
2022-09-05T06:17:39.083Z,7288.00
2022-09-05T06:18:42.623Z,7284.00
2022-09-05T06:20:45.927Z,7204.00
2022-09-05T06:22:07.537Z,7272.00
2022-09-05T06:22:07.729Z,7396.00
2022-09-05T06:22:40.015Z,7428.00
2022-09-05T06:23:40.106Z,7368.00
2022-09-05T06:24:39.036Z,7608.00
2022-09-05T06:25:38.988Z,7612.00
2022-09-05T06:26:38.975Z,7684.00
2022-09-05T06:27:57.996Z,7972.00
2022-09-05T06:28:39.981Z,8448.00
2022-09-05T06:29:39.768Z,8824.00
2022-09-05T06:30:38.945Z,8980.00
2022-09-05T06:31:38.990Z,9056.00
2022-09-05T06:32:38.925Z,9112.00
2022-09-05T06:33:38.925Z,9160.00
2022-09-05T06:34:38.870Z,9272.00
2022-09-05T06:35:38.898Z,9328.00
2022-09-05T06:36:38.864Z,9388.00
2022-09-05T06:37:38.850Z,9460.00
2022-09-05T06:38:38.849Z,9468.00
2022-09-05T06:39:38.877Z,9468.00
2022-09-05T06:40:39.836Z,9464.00
2022-09-05T06:41:38.812Z,9436.00
2022-09-05T06:42:43.394Z,9380.00
2022-09-05T06:43:39.792Z,9324.00
2022-09-05T06:44:38.774Z,9360.00
2022-09-05T06:45:38.815Z,9540.00
2022-09-05T06:47:05.809Z,9576.00
2022-09-05T06:47:39.792Z,9588.00
2022-09-05T06:48:46.475Z,9552.00
2022-09-05T06:49:42.807Z,9436.00
2022-09-05T06:51:07.064Z,9308.00
2022-09-05T06:51:44.849Z,9372.00
2022-09-05T06:52:39.679Z,9520.00
2022-09-05T06:53:38.686Z,9480.00
2022-09-05T06:54:38.670Z,9572.00
2022-09-05T06:55:39.715Z,9700.00
2022-09-05T06:56:38.636Z,9948.00
2022-09-05T06:57:40.022Z,10264.00
2022-09-05T06:58:39.617Z,10436.00
2022-09-05T06:59:38.599Z,10532.00
2022-09-05T07:00:38.682Z,10616.00
2022-09-05T07:02:00.546Z,10692.00
2022-09-05T07:02:59.132Z,10820.00
2022-09-05T07:03:39.569Z,10984.00
2022-09-05T07:05:37.585Z,11140.00
2022-09-05T07:05:42.840Z,11272.00
2022-09-05T07:07:01.064Z,11424.00
2022-09-05T07:07:45.670Z,11620.00
2022-09-05T07:08:39.502Z,11832.00
2022-09-05T07:09:38.474Z,11996.00
2022-09-05T07:10:39.514Z,12240.00
2022-09-05T07:11:38.475Z,12548.00
2022-09-05T07:12:38.432Z,12772.00
2022-09-05T07:13:44.424Z,13016.00
2022-09-05T07:14:39.430Z,13300.00
2022-09-05T07:15:38.489Z,13592.00
2022-09-05T07:16:39.067Z,13848.00
2022-09-05T07:17:59.701Z,14028.00
2022-09-05T07:18:39.383Z,14164.00
2022-09-05T07:19:38.383Z,14248.00
2022-09-05T07:21:12.192Z,14316.00
2022-09-05T07:21:39.353Z,14448.00
2022-09-05T07:22:48.613Z,14632.00
2022-09-05T07:24:05.596Z,14792.00
2022-09-05T07:24:54.944Z,14832.00
2022-09-05T07:25:39.371Z,14756.00
2022-09-05T07:26:53.973Z,14140.00
2022-09-05T07:27:46.854Z,14516.00
2022-09-05T07:28:39.278Z,15044.00
2022-09-05T07:29:38.271Z,15280.00
2022-09-05T07:30:38.269Z,15736.00
2022-09-05T07:31:38.507Z,16432.00
2022-09-05T07:32:38.239Z,17128.00
2022-09-05T07:33:38.233Z,17872.00
2022-09-05T07:34:38.203Z,18464.00
2022-09-05T07:35:41.830Z,18912.00
2022-09-05T07:36:38.225Z,19424.00
2022-09-05T07:37:38.199Z,19776.00
2022-09-05T07:38:48.327Z,20032.00
2022-09-05T07:39:39.214Z,20128.00
2022-09-05T07:40:38.161Z,20128.00
2022-09-05T07:41:38.168Z,19904.00
2022-09-05T07:42:38.129Z,21152.00
2022-09-05T07:43:38.102Z,25632.00
2022-09-05T07:44:38.091Z,29920.00
2022-09-05T07:45:38.108Z,33728.00
2022-09-05T07:46:38.132Z,34496.00
2022-09-05T07:47:38.083Z,33152.00
2022-09-05T07:48:38.062Z,32928.00
2022-09-05T07:49:42.237Z,33760.00
2022-09-05T07:55:13.811Z,32768.00
2022-09-05T07:56:48.858Z,25984.00
2022-09-05T07:56:54.710Z,30496.00
2022-09-05T07:56:55.335Z,29984.00
2022-09-05T07:57:06.509Z,23456.00
2022-09-05T07:57:08.983Z,26080.00
2022-09-05T07:57:09.218Z,21344.00
2022-09-05T07:57:50.841Z,20448.00
2022-09-05T07:58:38.951Z,24032.00
2022-09-05T07:59:37.945Z,26752.00
2022-09-05T08:00:37.947Z,32832.00
2022-09-05T08:01:39.702Z,43360.00
2022-09-05T08:02:37.894Z,51840.00
2022-09-05T08:03:37.883Z,55872.00
2022-09-05T08:04:37.953Z,57536.00
2022-09-05T08:05:37.983Z,56224.00
2022-09-05T08:07:45.910Z,59616.00
2022-09-05T08:07:49.960Z,66208.00
2022-09-05T08:08:38.976Z,68096.00
2022-09-05T08:10:06.092Z,65376.00
2022-09-05T08:11:22.469Z,60608.00
2022-09-05T08:11:38.829Z,58016.00
2022-09-05T08:12:46.592Z,57088.00
2022-09-05T08:13:39.136Z,53984.00
2022-09-05T08:14:45.320Z,49088.00
2022-09-05T08:16:02.798Z,43904.00
2022-09-05T08:16:38.806Z,40384.00
2022-09-05T08:17:37.735Z,39936.00
2022-09-05T08:18:37.711Z,38528.00
2022-09-05T08:19:37.718Z,37376.00
2022-09-05T08:20:37.678Z,36480.00
2022-09-05T08:21:40.005Z,34656.00
2022-09-05T08:22:37.664Z,35584.00
2022-09-05T08:23:37.663Z,35712.00
2022-09-05T08:24:37.667Z,32128.00
2022-09-05T08:25:56.562Z,35488.00
2022-09-05T08:26:38.627Z,33440.00
2022-09-05T08:27:37.621Z,35552.00
2022-09-05T08:28:39.094Z,34848.00
2022-09-05T08:29:37.615Z,34592.00
2022-09-05T08:30:37.620Z,35040.00
2022-09-05T08:31:41.663Z,34688.00
2022-09-05T08:32:37.577Z,34656.00
2022-09-05T08:33:37.563Z,35520.00
2022-09-05T08:34:44.601Z,35456.00
2022-09-05T08:35:38.585Z,35680.00
2022-09-05T08:36:37.526Z,36032.00
2022-09-05T08:37:37.509Z,33184.00
2022-09-05T08:38:40.979Z,33888.00
2022-09-05T08:39:37.510Z,35488.00
2022-09-05T08:40:37.506Z,35520.00
2022-09-05T08:41:50.319Z,34336.00
2022-09-05T08:42:38.458Z,33824.00
2022-09-05T08:46:36.112Z,34112.00
2022-09-05T08:46:37.994Z,34240.00
2022-09-05T08:46:47.411Z,34624.00
2022-09-05T08:46:49.033Z,32832.00
2022-09-05T08:47:45.828Z,32448.00
2022-09-05T08:48:38.381Z,30752.00
2022-09-05T08:49:40.379Z,31904.00
2022-09-05T08:50:38.417Z,31968.00
2022-09-05T08:51:41.900Z,32128.00
2022-09-05T08:52:38.342Z,31968.00
2022-09-05T08:53:46.521Z,33728.00
2022-09-05T08:54:38.329Z,33888.00
2022-09-05T08:55:37.329Z,34208.00
2022-09-05T08:56:37.277Z,34624.00
2022-09-05T08:57:38.103Z,35200.00
2022-09-05T08:58:37.263Z,33440.00
2022-09-05T08:59:37.269Z,33888.00
2022-09-05T09:00:38.347Z,34656.00
2022-09-05T09:01:37.256Z,36160.00
2022-09-05T09:02:46.672Z,37568.00
2022-09-05T09:03:38.288Z,37056.00
2022-09-05T09:05:00.722Z,37280.00
2022-09-05T09:06:12.043Z,37376.00
2022-09-05T09:06:38.199Z,36832.00
2022-09-05T09:07:51.439Z,36608.00
2022-09-05T09:08:38.167Z,36544.00
2022-09-05T09:09:37.243Z,37024.00
2022-09-05T09:10:37.143Z,36928.00
2022-09-05T09:11:37.197Z,38912.00
2022-09-05T09:12:37.166Z,38720.00
2022-09-05T09:13:37.124Z,38464.00
2022-09-05T09:14:37.102Z,37760.00
2022-09-05T09:15:37.116Z,37824.00
2022-09-05T09:16:37.124Z,38880.00
2022-09-05T09:17:37.076Z,39744.00
2022-09-05T09:18:37.058Z,41024.00
2022-09-05T09:19:37.067Z,41792.00
2022-09-05T09:20:37.078Z,40160.00
2022-09-05T09:21:38.058Z,40032.00
2022-09-05T09:22:37.035Z,40736.00
2022-09-05T09:23:37.015Z,40192.00
2022-09-05T09:24:36.996Z,40000.00
2022-09-05T09:25:37.033Z,40352.00
2022-09-05T09:26:36.979Z,38880.00
2022-09-05T09:28:47.597Z,37472.00
2022-09-05T09:28:48.185Z,38144.00
2022-09-05T09:29:37.943Z,36192.00
2022-09-05T09:30:36.978Z,38240.00
2022-09-05T09:31:36.953Z,37760.00
2022-09-05T09:32:36.889Z,40224.00
2022-09-05T09:33:36.884Z,41536.00
2022-09-05T09:34:38.272Z,41216.00
2022-09-05T09:35:36.900Z,41216.00
2022-09-05T09:36:36.865Z,40736.00
2022-09-05T09:37:50.604Z,40544.00
2022-09-05T09:38:37.863Z,40704.00
2022-09-05T09:39:38.136Z,42144.00
2022-09-05T09:40:36.861Z,43008.00
2022-09-05T09:41:36.817Z,42816.00
2022-09-05T09:42:36.822Z,42400.00
2022-09-05T09:43:36.794Z,41728.00
2022-09-05T09:44:36.787Z,40800.00
2022-09-05T09:45:36.802Z,40352.00
2022-09-05T09:46:39.544Z,40128.00
2022-09-05T09:47:36.814Z,40896.00
2022-09-05T09:48:36.741Z,41216.00
2022-09-05T09:49:36.741Z,31872.00
2022-09-05T09:50:36.767Z,41600.00
2022-09-05T09:51:37.726Z,41824.00
2022-09-05T09:52:36.700Z,42528.00
2022-09-05T09:53:36.884Z,42592.00
2022-09-05T09:54:36.738Z,42176.00
2022-09-05T09:55:36.876Z,41120.00
2022-09-05T09:56:36.666Z,42016.00
2022-09-05T09:57:36.675Z,40352.00
2022-09-05T09:58:36.641Z,40672.00
2022-09-05T09:59:36.615Z,42272.00
2022-09-05T10:00:37.637Z,41312.00
2022-09-05T10:01:37.271Z,41952.00
2022-09-05T10:06:03.214Z,43136.00
2022-09-05T10:06:42.351Z,42944.00
2022-09-05T10:10:44.732Z,45920.00
2022-09-05T10:10:45.621Z,44352.00
2022-09-05T10:10:49.224Z,44992.00
2022-09-05T10:10:54.449Z,25376.00
2022-09-05T10:10:55.123Z,33824.00
2022-09-05T10:11:03.108Z,31200.00
2022-09-05T10:11:07.915Z,43296.00
2022-09-05T10:11:54.772Z,35264.00
2022-09-05T10:12:37.472Z,33184.00
2022-09-05T10:13:36.478Z,45856.00
2022-09-05T10:14:49.672Z,46816.00
2022-09-05T10:15:37.463Z,48064.00
2022-09-05T10:16:36.497Z,48320.00
2022-09-05T10:17:36.476Z,49536.00
2022-09-05T10:18:36.433Z,50048.00
2022-09-05T10:20:37.400Z,49408.00
2022-09-05T10:21:36.404Z,48544.00
2022-09-05T10:22:37.435Z,47808.00
2022-09-05T10:23:36.372Z,47360.00
2022-09-05T10:24:37.378Z,46176.00
2022-09-05T10:25:36.363Z,43136.00
2022-09-05T10:26:36.394Z,41632.00
2022-09-05T10:27:36.388Z,46592.00
2022-09-05T10:28:36.318Z,47136.00
2022-09-05T10:29:38.503Z,49408.00
2022-09-05T10:32:53.638Z,48992.00
2022-09-05T10:33:33.839Z,48160.00
2022-09-05T10:35:07.861Z,48832.00
2022-09-05T10:35:14.945Z,48512.00
2022-09-05T10:35:15.499Z,48224.00
2022-09-05T10:35:37.691Z,48736.00
2022-09-05T10:36:36.335Z,48864.00
2022-09-05T10:37:36.524Z,49632.00
2022-09-05T10:38:36.227Z,50208.00
2022-09-05T10:39:36.242Z,50176.00
2022-09-05T10:41:05.057Z,49664.00
2022-09-05T10:41:37.216Z,51456.00
2022-09-05T10:42:39.860Z,53408.00
2022-09-05T10:43:37.148Z,55904.00
2022-09-05T10:44:36.140Z,34752.00
2022-09-05T10:45:38.834Z,32896.00
2022-09-05T10:46:52.157Z,38816.00
2022-09-05T10:47:37.116Z,34624.00
2022-09-05T10:48:36.117Z,35296.00
2022-09-05T10:49:36.128Z,30784.00
2022-09-05T10:50:36.099Z,52128.00
2022-09-05T10:51:37.733Z,39872.00
2022-09-05T10:52:36.082Z,53792.00
2022-09-05T10:53:39.184Z,54752.00
2022-09-05T10:54:36.064Z,57344.00
2022-09-05T10:55:36.036Z,57824.00
2022-09-05T10:56:36.061Z,58528.00
2022-09-05T10:57:36.025Z,60256.00
2022-09-05T11:00:35.517Z,60224.00
2022-09-05T11:02:19.384Z,56224.00
2022-09-05T11:02:20.212Z,57248.00
2022-09-05T11:02:20.818Z,49248.00
2022-09-05T11:02:41.149Z,32544.00
2022-09-05T11:03:37.090Z,31840.00
2022-09-05T11:04:37.153Z,33696.00
2022-09-05T11:05:36.971Z,60640.00
2022-09-05T11:06:35.959Z,36864.00
2022-09-05T11:07:35.915Z,51648.00
2022-09-05T11:08:35.916Z,56160.00
2022-09-05T11:09:35.903Z,37760.00
2022-09-05T11:10:35.893Z,29280.00
2022-09-05T11:11:35.923Z,26592.00
2022-09-05T11:12:35.878Z,24864.00
2022-09-05T11:13:35.859Z,24064.00
2022-09-05T11:14:35.836Z,23808.00
2022-09-05T11:15:35.910Z,24288.00
2022-09-05T11:16:35.925Z,26816.00
2022-09-05T11:17:35.824Z,31200.00
2022-09-05T11:18:55.356Z,36000.00
2022-09-05T11:19:36.819Z,47680.00
2022-09-05T11:20:35.982Z,51808.00
2022-09-05T11:21:35.769Z,40768.00
2022-09-05T11:22:35.801Z,59520.00
2022-09-05T11:23:35.750Z,60032.00
2022-09-05T11:24:35.733Z,58528.00
2022-09-05T11:25:40.323Z,47552.00
2022-09-05T11:26:36.775Z,32896.00
2022-09-05T11:27:35.721Z,33152.00
2022-09-05T11:28:37.691Z,50304.00
2022-09-05T11:29:36.693Z,36064.00
2022-09-05T11:30:38.716Z,37664.00
2022-09-05T11:32:11.807Z,40288.00
2022-09-05T11:35:41.246Z,55424.00
2022-09-05T11:36:30.965Z,36480.00
2022-09-05T11:39:47.843Z,35872.00
2022-09-05T11:39:50.798Z,34336.00
2022-09-05T11:39:53.893Z,63424.00
2022-09-05T11:40:06.719Z,50528.00
2022-09-05T11:40:07.230Z,57696.00
2022-09-05T11:40:09.882Z,63328.00
2022-09-05T11:40:57.761Z,67360.00
2022-09-05T11:41:36.579Z,68192.00
2022-09-05T11:42:35.582Z,67040.00
2022-09-05T11:43:35.531Z,67392.00
2022-09-05T11:44:35.571Z,64864.00
2022-09-05T11:45:36.754Z,64384.00
2022-09-05T11:46:35.584Z,36224.00
2022-09-05T11:47:43.447Z,52032.00
2022-09-05T11:48:36.495Z,61088.00
2022-09-05T11:49:35.471Z,33792.00
2022-09-05T11:50:35.454Z,36672.00
2022-09-05T11:51:35.463Z,31328.00
2022-09-05T11:52:35.486Z,28768.00
2022-09-05T11:53:35.434Z,27488.00
2022-09-05T11:54:35.401Z,49824.00
2022-09-05T11:55:35.400Z,31200.00
2022-09-05T11:56:39.650Z,36480.00
2022-09-05T11:57:36.423Z,42240.00
2022-09-05T11:58:45.244Z,49824.00
2022-09-05T11:59:36.360Z,51040.00
2022-09-05T12:00:35.432Z,44192.00
2022-09-05T12:01:41.168Z,51584.00
2022-09-05T12:03:59.901Z,51872.00
2022-09-05T12:04:36.492Z,48736.00
2022-09-05T12:05:50.723Z,27040.00
2022-09-05T12:06:39.297Z,47936.00
2022-09-05T12:07:36.332Z,43008.00
2022-09-05T12:08:35.299Z,55136.00
2022-09-05T12:09:35.267Z,43040.00
2022-09-05T12:10:46.817Z,38048.00
2022-09-05T12:11:36.244Z,33536.00
2022-09-05T12:12:41.585Z,30080.00
2022-09-05T12:13:36.229Z,52896.00
2022-09-05T12:14:35.244Z,39552.00
2022-09-05T12:15:35.215Z,32800.00
2022-09-05T12:16:35.341Z,42400.00
2022-09-05T12:17:35.871Z,42112.00
2022-09-05T12:18:35.152Z,39584.00
2022-09-05T12:19:35.137Z,53184.00
2022-09-05T12:20:43.629Z,53664.00